Wednesday, June 20, 2018, 5:06 PM EDT
Back to Local

KFYJ, West Point, Middle Peninsula Regional Airport

Location: Shacklefords, VA, United States Lat: 37.521
Local Time: 5:06 PM EDT (21:06 GMT) Lon: -76.764
Time Zone: US/Eastern Elev: 22 ft

Show me the last for .
Show Decoded

2018-06-20 16:35 METAR KFYJ 202035Z AUTO 16006KT 10SM SCT047 30/24 A2980 RMK AO1 T02950238 =
2018-06-20 16:15 METAR KFYJ 202015Z AUTO 14006KT 10SM SCT042 30/24 A2981 RMK AO1 T03000236 =
2018-06-20 15:55 METAR KFYJ 201955Z AUTO 15005KT 10SM CLR 31/23 A2981 RMK AO1 T03140234 =
2018-06-20 15:35 METAR KFYJ 201935Z AUTO 18006KT 10SM CLR 32/24 A2981 RMK AO1 T03180241 =
2018-06-20 15:15 METAR KFYJ 201915Z AUTO 13003KT 10SM CLR 31/24 A2982 RMK AO1 T03130237 =
2018-06-20 14:55 METAR KFYJ 201855Z AUTO 22005KT 10SM CLR 31/24 A2983 RMK AO1 T03110235 =
2018-06-20 14:35 METAR KFYJ 201835Z AUTO 24003KT 10SM SCT036 31/23 A2983 RMK AO1 T03120232 =
2018-06-20 14:15 METAR KFYJ 201815Z AUTO 16003KT 10SM SCT085 31/23 A2984 RMK AO1 T03120232 =
2018-06-20 13:55 METAR KFYJ 201755Z AUTO 17004KT 10SM SCT085 31/22 A2984 RMK AO1 T03050222 10308
                 20237 =
2018-06-20 13:35 METAR KFYJ 201735Z AUTO 19003KT 10SM CLR 31/22 A2986 RMK AO1 T03080218 =
2018-06-20 13:15 METAR KFYJ 201715Z AUTO 20003KT 10SM SCT100 30/22 A2986 RMK AO1 T03030215 =
2018-06-20 12:55 METAR KFYJ 201655Z AUTO 24003KT 10SM CLR 30/22 A2986 RMK AO1 T03000221 =
2018-06-20 12:35 METAR KFYJ 201635Z AUTO 22004KT 10SM CLR 30/20 A2987 RMK AO1 T02980197 =
2018-06-20 12:15 METAR KFYJ 201615Z AUTO 22003KT 10SM CLR 29/20 A2988 RMK AO1 T02940195 =
2018-06-20 11:55 METAR KFYJ 201555Z AUTO 17003KT 10SM CLR 29/21 A2988 RMK AO1 T02930208 =
2018-06-20 11:35 METAR KFYJ 201535Z AUTO 21003KT 10SM CLR 29/22 A2989 RMK AO1 T02870219 =
2018-06-20 11:15 METAR KFYJ 201515Z AUTO 00000KT 10SM CLR 28/22 A2989 RMK AO1 T02810222 =
2018-06-20 10:55 METAR KFYJ 201455Z AUTO 26003KT 10SM CLR 28/23 A2989 RMK AO1 T02780232 =
2018-06-20 10:35 METAR KFYJ 201435Z AUTO 00000KT 10SM SCT075 28/23 A2989 RMK AO1 T02760232 =
2018-06-20 10:15 METAR KFYJ 201415Z AUTO 00000KT 10SM OVC075 27/23 A2989 RMK AO1 T02690228 =
2018-06-20 09:55 METAR KFYJ 201355Z AUTO 00000KT 10SM OVC065 26/23 A2989 RMK AO1 T02620230 =
2018-06-20 09:35 METAR KFYJ 201335Z AUTO 00000KT 10SM OVC065 26/23 A2990 RMK AO1 T02550229 =
2018-06-20 09:15 METAR KFYJ 201315Z AUTO 00000KT 10SM SCT008 BKN065 26/23 A2990 RMK AO1 T02580233
                 =
2018-06-20 08:55 METAR KFYJ 201255Z AUTO 00000KT 10SM SCT008 26/23 A2990 RMK AO1 T02550227 =
2018-06-20 08:35 METAR KFYJ 201235Z AUTO 00000KT 10SM SCT008 25/23 A2989 RMK AO1 T02450232 =
2018-06-20 08:15 METAR KFYJ 201215Z AUTO 00000KT 7SM SCT004 24/23 A2990 RMK AO1 T02410234 =
2018-06-20 07:55 METAR KFYJ 201155Z AUTO 00000KT 5SM OVC004 24/23 A2989 RMK AO1 7//// T02360232
                 10241 20227 =
2018-06-20 07:35 METAR KFYJ 201135Z AUTO 30003KT 7SM BKN004 24/24 A2988 RMK AO1 T02390235 =
2018-06-20 07:15 METAR KFYJ 201115Z AUTO 00000KT 5SM BKN004 23/23 A2988 RMK AO1 T02320232 =
2018-06-20 06:55 METAR KFYJ 201055Z AUTO 00000KT 4SM OVC004 23/23 A2988 RMK AO1 T02310231 =
2018-06-20 06:35 METAR KFYJ 201035Z AUTO 00000KT 4SM BKN004 23/23 A2987 RMK AO1 T02300230 =
2018-06-20 06:15 METAR KFYJ 201015Z AUTO 00000KT 4SM BKN004 23/23 A2987 RMK AO1 T02280228 =
2018-06-20 05:55 METAR KFYJ 200955Z AUTO 00000KT 4SM BKN004 23/23 A2988 RMK AO1 T02280228 =
2018-06-20 05:35 METAR KFYJ 200935Z AUTO 00000KT 5SM BKN004 23/23 A2987 RMK AO1 T02280228 =
2018-06-20 05:15 METAR KFYJ 200915Z AUTO 00000KT 5SM OVC004 23/23 A2988 RMK AO1 T02300230 =
2018-06-20 04:55 METAR KFYJ 200855Z AUTO 00000KT 5SM OVC004 23/23 A2987 RMK AO1 T02300230 =
2018-06-20 04:35 METAR KFYJ 200835Z AUTO 00000KT 7SM OVC004 23/23 A2987 RMK AO1 T02320232 =
2018-06-20 04:15 METAR KFYJ 200815Z AUTO 00000KT 5SM OVC004 23/23 A2986 RMK AO1 T02320232 =
2018-06-20 03:55 METAR KFYJ 200755Z AUTO 30003KT 5SM OVC004 23/23 A2986 RMK AO1 T02310231 =
2018-06-20 03:35 METAR KFYJ 200735Z AUTO 33003KT 7SM OVC004 23/23 A2986 RMK AO1 T02310231 =
2018-06-20 03:15 METAR KFYJ 200715Z AUTO 32003KT 5SM OVC002 23/23 A2986 RMK AO1 T02320232 =
2018-06-20 02:55 METAR KFYJ 200655Z AUTO 29003KT 5SM OVC002 23/23 A2986 RMK AO1 T02320232 =
2018-06-20 02:35 METAR KFYJ 200635Z AUTO 31003KT 1 1/2SM OVC002 23/23 A2987 RMK AO1 T02330233 =
2018-06-20 02:15 METAR KFYJ 200615Z AUTO 32003KT 2 1/2SM OVC002 23/23 A2987 RMK AO1 T02320232 =
2018-06-20 01:55 METAR KFYJ 200555Z AUTO 30003KT 1 1/4SM OVC002 23/23 A2987 RMK AO1 60008
                 T02310231 10236 20230 =
2018-06-20 01:35 METAR KFYJ 200535Z AUTO 00000KT 1 1/2SM OVC002 23/23 A2988 RMK AO1 T02320232 =
2018-06-20 01:15 METAR KFYJ 200515Z AUTO 31003KT 10SM OVC004 23/23 A2988 RMK AO1 T02330233 =
2018-06-20 00:55 METAR KFYJ 200455Z AUTO 00000KT 7SM BKN004 23/23 A2988 RMK AO1 T02310231 =
2018-06-20 00:35 METAR KFYJ 200435Z AUTO 00000KT 7SM BKN008 23/23 A2988 RMK AO1 T02310231 =
2018-06-20 00:15 METAR KFYJ 200415Z AUTO 00000KT 10SM SCT008 23/23 A2988 RMK AO1 T02300230 =
2018-06-19 23:55 METAR KFYJ 200355Z AUTO 00000KT 10SM CLR 23/23 A2987 RMK AO1 T02330233 =
2018-06-19 23:35 METAR KFYJ 200335Z AUTO 00000KT 10SM CLR 23/23 A2988 RMK AO1 T02320232 =
2018-06-19 23:15 METAR KFYJ 200315Z AUTO 00000KT 10SM SCT004 23/23 A2988 RMK AO1 T02310231 =
2018-06-19 22:55 METAR KFYJ 200255Z AUTO 00000KT 10SM SCT006 SCT010 23/23 A2988 RMK AO1 60008
                 T02320232 =
2018-06-19 22:35 METAR KFYJ 200235Z AUTO 27004KT 10SM SCT006 23/23 A2989 RMK AO1 T02310231 =
2018-06-19 22:15 METAR KFYJ 200215Z AUTO 29003KT 10SM SCT006 23/23 A2988 RMK AO1 T02310231 =
2018-06-19 21:55 METAR KFYJ 200155Z AUTO 00000KT 10SM SCT070 SCT080 SCT100 23/23 A2988 RMK AO1
                 P0004 T02310231 =
2018-06-19 21:35 METAR KFYJ 200135Z AUTO 28004KT 10SM BKN070 OVC090 23/23 A2988 RMK AO1 P0003
                 T02320229 =
2018-06-19 21:15 METAR KFYJ 200115Z AUTO 27005KT 10SM OVC070 23/23 A2988 RMK AO1 P0002 T02330232
                 =
2018-06-19 20:55 METAR KFYJ 200055Z AUTO 27003KT 10SM SCT007 BKN075 OVC080 24/23 A2987 RMK AO1
                 P0004 T02350234 =
2018-06-19 20:35 METAR KFYJ 200035Z AUTO 00000KT 10SM SCT050 BKN060 OVC085 24/24 A2988 RMK AO1
                 P0002 T02360236 =
2018-06-19 20:15 METAR KFYJ 200015Z AUTO 00000KT 10SM SCT055 BKN075 BKN090 24/24 A2988 RMK AO1
                 T02350235 =
2018-06-19 19:55 METAR KFYJ 192355Z AUTO 00000KT 10SM SCT050 SCT065 BKN110 24/24 A2988 RMK AO1
                 P0006 6//// T02370237 =
2018-06-19 19:35 METAR KFYJ 192335Z AUTO 00000KT 10SM SCT032 BKN060 OVC070 24/23 A2987 RMK AO1
                 P0006 T02370234 =
2018-06-19 19:15 METAR KFYJ 192315Z AUTO 27006KT 5SM 24/23 A2986 RMK AO1 P0005 T02380231 =
2018-06-19 17:55 METAR KFYJ 192155Z AUTO 01011G22KT 340V040 10SM SCT023 SCT044 BKN050 27/23 A2982
                 RMK AO1 T02650232 =
2018-06-19 17:35 METAR KFYJ 192135Z AUTO 34015G21KT 10SM SCT055 SCT070 SCT080 34/24 A2982 RMK AO1
                 T03350238 =
2018-06-19 17:15 METAR KFYJ 192115Z AUTO 25005KT 10SM CLR 35/24 A2979 RMK AO1 T03460240 =

Support USWX by starting your Amazon purchase here.